createdAt,value
2023-04-06T00:02:06.716Z,57.00
2023-04-06T00:04:34.575Z,57.20
2023-04-06T00:07:02.477Z,57.20
2023-04-06T00:09:30.293Z,57.20
2023-04-06T00:11:58.824Z,57.20
2023-04-06T00:14:26.879Z,57.30
2023-04-06T00:16:56.127Z,57.40
2023-04-06T00:19:23.954Z,57.20
2023-04-06T00:21:51.865Z,57.50
2023-04-06T00:24:19.666Z,57.70
2023-04-06T00:26:47.751Z,57.80
2023-04-06T00:29:15.935Z,57.80
2023-04-06T00:31:43.852Z,57.80
2023-04-06T00:34:13.495Z,58.00
2023-04-06T00:36:41.710Z,58.00
2023-04-06T00:39:09.656Z,58.60
2023-04-06T00:41:37.714Z,58.10
2023-04-06T00:44:05.737Z,58.30
2023-04-06T00:46:33.707Z,58.30
2023-04-06T00:49:01.597Z,58.40
2023-04-06T00:51:30.791Z,58.50
2023-04-06T00:53:58.581Z,58.60
2023-04-06T00:56:27.092Z,60.20
2023-04-06T00:58:55.384Z,58.50
2023-04-06T01:01:23.275Z,58.50
2023-04-06T01:03:51.530Z,58.90
2023-04-06T01:06:19.506Z,59.10
2023-04-06T01:08:48.779Z,59.10
2023-04-06T01:11:16.579Z,59.10
2023-04-06T01:13:44.738Z,59.10
2023-04-06T01:16:12.634Z,59.10
2023-04-06T01:18:41.142Z,59.40
2023-04-06T01:21:09.722Z,59.40
2023-04-06T01:23:38.959Z,59.50
2023-04-06T01:26:06.844Z,59.90
2023-04-06T01:28:34.702Z,59.90
2023-04-06T01:31:02.547Z,60.00
2023-04-06T01:33:30.483Z,60.40
2023-04-06T01:35:58.373Z,60.30
2023-04-06T01:38:26.641Z,60.50
2023-04-06T01:40:56.127Z,60.60
2023-04-06T01:43:24.211Z,60.80
2023-04-06T01:45:52.064Z,60.80
2023-04-06T01:48:20.401Z,60.60
2023-04-06T01:50:48.673Z,60.80
2023-04-06T01:53:16.527Z,60.90
2023-04-06T01:55:44.725Z,61.00
2023-04-06T01:58:14.646Z,61.10
2023-04-06T02:00:42.730Z,61.80
2023-04-06T02:03:10.624Z,61.70
2023-04-06T02:05:38.948Z,61.90
2023-04-06T02:08:07.372Z,62.10
2023-04-06T02:10:35.476Z,62.10
2023-04-06T02:13:03.722Z,61.90
2023-04-06T02:15:32.986Z,62.20
2023-04-06T02:18:01.714Z,62.30
2023-04-06T02:20:29.652Z,62.40
2023-04-06T02:23:00.581Z,62.60
2023-04-06T02:25:28.959Z,62.90
2023-04-06T02:27:57.020Z,62.70
2023-04-06T02:30:24.836Z,63.00
2023-04-06T02:32:54.063Z,63.10
2023-04-06T02:35:21.898Z,63.20
2023-04-06T02:37:50.307Z,63.20
2023-04-06T02:40:18.213Z,63.10
2023-04-06T02:42:46.056Z,63.20
2023-04-06T02:45:13.882Z,63.20
2023-04-06T02:47:41.757Z,63.30
2023-04-06T02:50:11.743Z,63.50
2023-04-06T02:52:39.592Z,63.50
2023-04-06T02:55:08.767Z,63.70
2023-04-06T02:57:36.798Z,63.90
2023-04-06T03:00:05.497Z,64.20
2023-04-06T03:02:33.445Z,64.00
2023-04-06T03:05:01.454Z,63.90
2023-04-06T03:07:30.688Z,63.80
2023-04-06T03:09:58.558Z,63.80
2023-04-06T03:12:26.337Z,63.70
2023-04-06T03:14:54.251Z,64.10
2023-04-06T03:17:22.095Z,64.40
2023-04-06T03:19:50.672Z,64.20
2023-04-06T03:22:18.571Z,63.80
2023-04-06T03:24:47.755Z,63.90
2023-04-06T03:27:15.612Z,63.90
2023-04-06T03:29:43.685Z,64.00
2023-04-06T03:32:11.630Z,63.80
2023-04-06T03:34:39.877Z,63.90
2023-04-06T03:37:14.951Z,64.60
2023-04-06T03:39:42.804Z,63.60
2023-04-06T03:42:12.514Z,63.40
2023-04-06T03:44:40.361Z,63.50
2023-04-06T03:47:08.230Z,63.40
2023-04-06T03:49:37.496Z,63.50
2023-04-06T03:52:06.365Z,63.60
2023-04-06T03:54:34.154Z,63.90
2023-04-06T03:57:02.241Z,63.60
2023-04-06T03:59:31.476Z,63.10
2023-04-06T04:01:59.388Z,62.70
2023-04-06T04:04:27.210Z,62.60
2023-04-06T04:06:55.028Z,63.30
2023-04-06T04:09:22.881Z,63.00
2023-04-06T04:11:50.904Z,63.10
2023-04-06T04:14:18.697Z,62.90
2023-04-06T04:16:47.853Z,62.70
2023-04-06T04:19:15.811Z,62.30
2023-04-06T04:21:48.519Z,61.60
2023-04-06T04:24:16.489Z,61.40
2023-04-06T04:26:45.295Z,60.70
2023-04-06T04:29:13.555Z,60.00
2023-04-06T04:31:41.466Z,59.90
2023-04-06T04:34:10.696Z,60.00
2023-04-06T04:36:38.556Z,59.90
2023-04-06T04:39:06.603Z,59.50
2023-04-06T04:41:34.667Z,59.40
2023-04-06T04:44:02.562Z,59.10
2023-04-06T04:46:30.498Z,59.20
2023-04-06T04:48:58.597Z,59.10
2023-04-06T04:51:27.793Z,59.00
2023-04-06T04:53:55.657Z,59.10
2023-04-06T04:56:23.662Z,59.20
2023-04-06T04:58:51.897Z,59.00
2023-04-06T05:01:19.755Z,58.90
2023-04-06T05:03:47.900Z,59.00
2023-04-06T05:06:15.734Z,59.00
2023-04-06T05:08:45.269Z,58.90
2023-04-06T05:11:13.722Z,59.00
2023-04-06T05:13:41.632Z,58.70
2023-04-06T05:16:09.612Z,58.80
2023-04-06T05:18:37.585Z,58.90
2023-04-06T05:21:05.621Z,59.00
2023-04-06T05:23:33.471Z,59.10
2023-04-06T05:26:02.757Z,59.10
2023-04-06T05:28:30.629Z,59.30
2023-04-06T05:30:58.867Z,59.30
2023-04-06T05:33:27.151Z,59.40
2023-04-06T05:35:55.070Z,59.50
2023-04-06T05:38:22.953Z,60.10
2023-04-06T05:40:51.293Z,59.50
2023-04-06T05:43:22.899Z,59.50
2023-04-06T05:45:51.287Z,59.50
2023-04-06T05:48:19.137Z,59.20
2023-04-06T05:50:51.304Z,59.50
2023-04-06T05:53:19.159Z,59.40
2023-04-06T05:55:46.997Z,59.30
2023-04-06T05:58:15.465Z,59.50
2023-04-06T06:00:46.887Z,58.80
2023-04-06T06:03:16.251Z,59.60
2023-04-06T06:05:44.173Z,59.50
2023-04-06T06:08:12.644Z,59.70
2023-04-06T06:10:41.304Z,59.80
2023-04-06T06:13:09.481Z,60.00
2023-04-06T06:15:37.488Z,60.00
2023-04-06T06:18:07.355Z,59.90
2023-04-06T06:20:35.249Z,60.20
2023-04-06T06:23:03.061Z,59.80
2023-04-06T06:25:31.805Z,60.00
2023-04-06T06:28:00.181Z,60.30
2023-04-06T06:30:28.084Z,60.70
2023-04-06T06:32:56.008Z,60.50
2023-04-06T06:35:25.429Z,60.70
2023-04-06T06:37:53.393Z,61.20
2023-04-06T06:40:24.898Z,60.60
2023-04-06T06:42:53.134Z,61.00
2023-04-06T06:45:21.214Z,60.60
2023-04-06T06:47:49.656Z,60.20
2023-04-06T06:50:18.045Z,59.90
2023-04-06T06:52:47.751Z,59.90
2023-04-06T06:55:16.389Z,60.10
2023-04-06T06:57:44.291Z,60.20
2023-04-06T07:00:14.347Z,60.10
2023-04-06T07:02:42.678Z,60.10
2023-04-06T07:05:26.296Z,59.80
2023-04-06T07:07:57.756Z,59.80
2023-04-06T07:10:25.983Z,59.80
2023-04-06T07:12:54.013Z,59.20
2023-04-06T07:15:21.909Z,58.50
2023-04-06T07:17:50.932Z,58.40
2023-04-06T07:20:19.002Z,57.50
2023-04-06T07:22:46.884Z,58.30
2023-04-06T07:25:16.239Z,58.40
2023-04-06T07:27:44.109Z,58.40
2023-04-06T07:30:12.787Z,58.30
2023-04-06T07:32:40.688Z,58.30
2023-04-06T07:35:09.184Z,58.30
2023-04-06T07:37:37.235Z,58.20
2023-04-06T07:40:05.587Z,57.80
2023-04-06T07:42:35.010Z,58.30
2023-04-06T07:45:02.905Z,58.20
2023-04-06T07:47:30.808Z,58.80
2023-04-06T07:49:58.914Z,58.40
2023-04-06T07:52:26.886Z,58.50
2023-04-06T07:54:54.677Z,58.40
2023-04-06T07:57:22.481Z,58.30
2023-04-06T07:59:52.193Z,58.50
2023-04-06T08:02:20.298Z,58.40
2023-04-06T08:04:49.852Z,58.50
2023-04-06T08:07:18.081Z,58.30
2023-04-06T08:09:45.849Z,58.30
2023-04-06T08:12:14.060Z,58.20
2023-04-06T08:14:41.937Z,58.30
2023-04-06T08:17:11.436Z,58.40
2023-04-06T08:19:39.454Z,58.60
2023-04-06T08:22:07.308Z,58.90
2023-04-06T08:24:35.458Z,59.00
2023-04-06T08:27:04.046Z,58.80
2023-04-06T08:29:31.895Z,59.00
2023-04-06T08:31:59.809Z,59.20
2023-04-06T08:34:29.092Z,59.40
2023-04-06T08:36:56.904Z,59.30
2023-04-06T08:39:26.683Z,59.20
2023-04-06T08:41:58.003Z,58.90
2023-04-06T08:44:26.687Z,59.20
2023-04-06T08:46:54.895Z,58.70
2023-04-06T08:49:23.164Z,58.70
2023-04-06T08:51:53.160Z,58.70
2023-04-06T08:54:21.067Z,58.70
2023-04-06T08:56:50.738Z,58.70
2023-04-06T08:59:19.280Z,58.30
2023-04-06T09:01:47.831Z,58.70
2023-04-06T09:04:16.688Z,58.60
2023-04-06T09:06:45.594Z,58.60
2023-04-06T09:09:14.895Z,58.50
2023-04-06T09:11:47.546Z,59.00
2023-04-06T09:14:16.090Z,59.20
2023-04-06T09:16:48.680Z,58.40
2023-04-06T09:19:16.571Z,58.50
2023-04-06T09:21:44.585Z,58.40
2023-04-06T09:24:14.136Z,58.20
2023-04-06T09:26:49.659Z,58.20
2023-04-06T09:29:27.494Z,58.20
2023-04-06T09:32:04.668Z,58.20
2023-04-06T09:34:32.609Z,58.00
2023-04-06T09:37:05.512Z,58.50
2023-04-06T09:39:34.704Z,57.90
2023-04-06T09:42:03.618Z,57.90
2023-04-06T09:44:32.612Z,58.40
2023-04-06T09:47:01.526Z,58.70
2023-04-06T09:49:30.063Z,58.20
2023-04-06T09:52:01.248Z,58.20
2023-04-06T09:54:31.432Z,58.40
2023-04-06T09:57:06.230Z,58.80
2023-04-06T09:59:49.944Z,59.60
2023-04-06T10:02:28.791Z,60.50
2023-04-06T10:05:02.149Z,60.90
2023-04-06T10:07:30.270Z,60.60
2023-04-06T10:09:59.068Z,60.90
2023-04-06T10:12:28.735Z,60.80
2023-04-06T10:14:58.050Z,61.30
2023-04-06T10:17:26.292Z,61.10
2023-04-06T10:19:59.786Z,61.30
2023-04-06T10:22:34.773Z,61.10
2023-04-06T10:25:02.658Z,61.80
2023-04-06T10:27:32.620Z,61.40
2023-04-06T10:30:04.966Z,61.80
2023-04-06T10:32:40.848Z,62.70
2023-04-06T10:35:10.703Z,62.80
2023-04-06T10:37:51.673Z,63.00
2023-04-06T10:40:25.959Z,64.00
2023-04-06T10:42:56.369Z,64.60
2023-04-06T10:45:25.481Z,64.90
2023-04-06T10:47:55.319Z,65.40
2023-04-06T10:50:23.864Z,65.80
2023-04-06T10:53:01.452Z,67.10
2023-04-06T10:55:30.368Z,67.20
2023-04-06T10:57:59.608Z,66.70
2023-04-06T11:00:39.341Z,66.60
2023-04-06T11:03:11.682Z,66.40
2023-04-06T11:05:39.917Z,66.90
2023-04-06T11:08:07.876Z,67.10
2023-04-06T11:10:35.765Z,67.70
2023-04-06T11:13:06.712Z,68.10
2023-04-06T11:15:38.938Z,68.50
2023-04-06T11:18:07.833Z,68.90
2023-04-06T11:20:36.028Z,69.80
2023-04-06T11:23:04.937Z,69.40
2023-04-06T11:25:33.562Z,69.90
2023-04-06T11:28:01.596Z,69.90
2023-04-06T11:30:31.342Z,70.20
2023-04-06T11:33:04.519Z,71.30
2023-04-06T11:35:33.653Z,71.80
2023-04-06T11:38:05.655Z,71.30
2023-04-06T11:40:34.216Z,71.50
2023-04-06T11:43:02.169Z,71.70
2023-04-06T11:45:42.041Z,71.70
2023-04-06T11:48:20.902Z,72.80
2023-04-06T11:50:50.085Z,72.30
2023-04-06T11:53:18.097Z,71.80
2023-04-06T11:55:47.803Z,72.00
2023-04-06T11:58:15.954Z,71.80
2023-04-06T12:00:47.564Z,72.00
2023-04-06T12:03:16.127Z,72.40
2023-04-06T12:05:45.423Z,72.20
2023-04-06T12:08:13.344Z,72.00
2023-04-06T12:10:41.294Z,72.60
2023-04-06T12:13:09.773Z,72.90
2023-04-06T12:15:37.617Z,73.20
2023-04-06T12:18:06.953Z,73.20
2023-04-06T12:20:35.029Z,73.50
2023-04-06T12:23:02.839Z,73.60
2023-04-06T12:25:31.222Z,73.90
2023-04-06T12:28:00.216Z,73.90
2023-04-06T12:30:28.037Z,73.90
2023-04-06T12:32:56.066Z,74.00
2023-04-06T12:35:25.525Z,73.60
2023-04-06T12:37:53.342Z,73.70
2023-04-06T12:40:21.364Z,73.80
2023-04-06T12:42:49.714Z,74.00
2023-04-06T12:45:18.119Z,74.60
2023-04-06T12:47:46.547Z,74.00
2023-04-06T12:50:14.634Z,74.10
2023-04-06T12:52:44.381Z,74.30
2023-04-06T12:55:12.590Z,75.20
2023-04-06T12:57:41.286Z,75.00
2023-04-06T13:00:10.766Z,74.80
2023-04-06T13:02:39.077Z,75.40
2023-04-06T13:05:07.501Z,75.40
2023-04-06T13:07:35.330Z,75.50
2023-04-06T13:10:05.038Z,75.10
2023-04-06T13:12:32.905Z,75.70
2023-04-06T13:15:00.932Z,75.40
2023-04-06T13:17:29.870Z,75.50
2023-04-06T13:19:58.073Z,75.70
2023-04-06T13:22:25.939Z,76.00
2023-04-06T13:24:53.893Z,76.20
2023-04-06T13:27:23.224Z,75.90
2023-04-06T13:29:51.370Z,76.70
2023-04-06T13:32:19.191Z,76.40
2023-04-06T13:34:48.981Z,76.90
2023-04-06T13:37:17.813Z,77.00
2023-04-06T13:39:45.709Z,77.20
2023-04-06T13:42:13.619Z,77.60
2023-04-06T13:44:43.422Z,77.00
2023-04-06T13:47:12.021Z,77.20
2023-04-06T13:49:40.058Z,76.70
2023-04-06T13:52:07.849Z,77.00
2023-04-06T13:54:35.769Z,77.10
2023-04-06T13:57:03.686Z,77.20
2023-04-06T13:59:35.017Z,77.50
2023-04-06T14:02:04.886Z,78.20
2023-04-06T14:04:33.157Z,78.30
2023-04-06T14:07:01.782Z,78.40
2023-04-06T14:09:29.673Z,78.50
2023-04-06T14:11:57.933Z,78.50
2023-04-06T14:14:25.799Z,78.80
2023-04-06T14:16:53.774Z,79.10
2023-04-06T14:19:23.126Z,79.60
2023-04-06T14:21:51.664Z,79.50
2023-04-06T14:24:20.256Z,79.40
2023-04-06T14:26:48.538Z,79.70
2023-04-06T14:29:16.745Z,79.80
2023-04-06T14:31:46.937Z,80.10
2023-04-06T14:34:15.128Z,80.80
2023-04-06T14:36:44.865Z,80.80
2023-04-06T14:39:12.759Z,80.90
2023-04-06T14:41:40.621Z,81.00
2023-04-06T14:44:11.283Z,80.90
2023-04-06T14:46:39.225Z,81.00
2023-04-06T14:49:07.161Z,81.20
2023-04-06T14:51:37.167Z,80.90
2023-04-06T14:54:06.820Z,81.00
2023-04-06T14:56:34.698Z,81.30
2023-04-06T14:59:04.193Z,81.30
2023-04-06T15:01:36.286Z,81.80
2023-04-06T15:04:05.106Z,82.00
2023-04-06T15:06:33.144Z,81.80
2023-04-06T15:09:01.516Z,82.40
2023-04-06T15:11:30.687Z,82.20
2023-04-06T15:13:58.650Z,82.20
2023-04-06T15:16:26.740Z,82.30
2023-04-06T15:18:54.626Z,82.50
2023-04-06T15:21:22.476Z,82.70
2023-04-06T15:23:51.325Z,83.00
2023-04-06T15:26:19.156Z,82.80
2023-04-06T15:28:48.868Z,83.30
2023-04-06T15:31:24.443Z,83.80
2023-04-06T15:34:01.336Z,84.70
2023-04-06T15:36:30.844Z,83.60
2023-04-06T15:38:59.342Z,84.20
2023-04-06T15:41:27.381Z,84.00
2023-04-06T15:43:57.370Z,84.00
2023-04-06T15:46:25.567Z,84.30
2023-04-06T15:48:53.436Z,84.30
2023-04-06T15:51:21.441Z,84.00
2023-04-06T15:53:50.346Z,84.50
2023-04-06T15:56:18.183Z,84.60
2023-04-06T15:58:46.410Z,84.60
2023-04-06T16:01:17.764Z,84.60
2023-04-06T16:03:48.110Z,84.80
2023-04-06T16:06:16.469Z,84.50
2023-04-06T16:08:44.664Z,84.80
2023-04-06T16:11:13.453Z,84.80
2023-04-06T16:13:43.173Z,85.30
2023-04-06T16:16:15.774Z,85.20
2023-04-06T16:18:45.262Z,85.50
2023-04-06T16:21:17.664Z,85.30
2023-04-06T16:23:46.239Z,85.60
2023-04-06T16:26:15.073Z,85.30
2023-04-06T16:28:43.522Z,85.10
2023-04-06T16:31:22.378Z,85.50
2023-04-06T16:33:53.519Z,86.00
2023-04-06T16:36:24.631Z,85.80
2023-04-06T16:38:52.755Z,85.80
2023-04-06T16:41:21.047Z,85.60
2023-04-06T16:43:50.028Z,85.80
2023-04-06T16:46:18.348Z,86.10
2023-04-06T16:48:46.457Z,86.40
2023-04-06T16:51:16.160Z,86.50
2023-04-06T16:53:44.869Z,86.70
2023-04-06T16:56:13.447Z,86.50
2023-04-06T16:58:41.315Z,86.70
2023-04-06T17:01:09.547Z,86.50
2023-04-06T17:03:37.527Z,86.80
2023-04-06T17:06:06.034Z,86.80
2023-04-06T17:08:35.333Z,86.70
2023-04-06T17:11:04.591Z,86.70
2023-04-06T17:13:33.011Z,86.80
2023-04-06T17:16:01.244Z,87.00
2023-04-06T17:18:30.180Z,87.20
2023-04-06T17:20:58.402Z,87.20
2023-04-06T17:23:26.771Z,87.00
2023-04-06T17:25:57.839Z,87.60
2023-04-06T17:28:25.847Z,87.70
2023-04-06T17:30:53.747Z,87.80
2023-04-06T17:33:22.100Z,88.60
2023-04-06T17:35:51.036Z,87.70
2023-04-06T17:38:19.644Z,87.70
2023-04-06T17:40:47.760Z,87.60
2023-04-06T17:43:16.982Z,87.70
2023-04-06T17:45:45.328Z,88.00
2023-04-06T17:48:13.552Z,87.60
2023-04-06T17:50:42.620Z,87.90
2023-04-06T17:53:10.873Z,87.90
2023-04-06T17:55:39.255Z,88.10
2023-04-06T17:58:07.427Z,88.20
2023-04-06T18:00:36.695Z,88.10
2023-04-06T18:03:04.645Z,88.40
2023-04-06T18:05:32.611Z,88.50
2023-04-06T18:08:00.418Z,88.40
2023-04-06T18:10:28.223Z,88.40
2023-04-06T18:12:56.377Z,88.40
2023-04-06T18:15:24.261Z,88.40
2023-04-06T18:17:53.447Z,88.40
2023-04-06T18:20:22.024Z,88.50
2023-04-06T18:25:18.887Z,88.60
2023-04-06T18:27:46.690Z,89.40
2023-04-06T18:30:17.567Z,88.80
2023-04-06T18:32:45.449Z,89.00
2023-04-06T18:35:15.837Z,89.20
2023-04-06T18:37:43.704Z,89.40
2023-04-06T18:40:31.810Z,89.30
2023-04-06T18:42:59.783Z,90.10
2023-04-06T18:45:27.730Z,89.50
2023-04-06T18:47:57.354Z,89.70
2023-04-06T18:50:27.096Z,90.00
2023-04-06T18:52:55.319Z,90.10
2023-04-06T18:55:23.286Z,90.10
2023-04-06T18:57:51.261Z,90.10
2023-04-06T19:00:19.530Z,90.10
2023-04-06T19:02:47.790Z,90.20
2023-04-06T19:05:16.432Z,90.20
2023-04-06T19:07:49.668Z,90.20
2023-04-06T19:10:17.589Z,90.30
2023-04-06T19:12:46.025Z,90.30
2023-04-06T19:15:17.056Z,90.30
2023-04-06T19:17:45.371Z,90.20
2023-04-06T19:20:13.602Z,90.30
2023-04-06T19:22:41.544Z,90.30
2023-04-06T19:25:11.956Z,90.40
2023-04-06T19:27:40.145Z,90.50
2023-04-06T19:30:09.801Z,90.40
2023-04-06T19:32:37.665Z,90.50
2023-04-06T19:35:06.694Z,90.50
2023-04-06T19:37:34.830Z,90.40
2023-04-06T19:40:03.139Z,90.70
2023-04-06T19:42:32.716Z,90.40
2023-04-06T19:45:00.611Z,90.60
2023-04-06T19:47:28.534Z,90.60
2023-04-06T19:49:56.559Z,90.60
2023-04-06T19:52:24.342Z,90.60
2023-04-06T19:54:52.148Z,90.70
2023-04-06T19:57:20.166Z,90.70
2023-04-06T19:59:49.810Z,90.70
2023-04-06T20:02:18.660Z,90.70
2023-04-06T20:04:46.666Z,90.80
2023-04-06T20:07:15.132Z,90.70
2023-04-06T20:09:43.073Z,90.80
2023-04-06T20:12:11.844Z,90.80
2023-04-06T20:14:42.094Z,90.80
2023-04-06T20:17:11.735Z,90.70
2023-04-06T20:19:39.894Z,90.80
2023-04-06T20:22:07.847Z,90.80
2023-04-06T20:24:35.718Z,90.80
2023-04-06T20:27:03.679Z,90.80
2023-04-06T20:29:31.531Z,90.80
2023-04-06T20:32:01.322Z,90.90
2023-04-06T20:34:31.812Z,90.90
2023-04-06T20:36:59.951Z,91.00
2023-04-06T20:39:28.256Z,90.90
2023-04-06T20:41:57.408Z,91.00
2023-04-06T20:44:27.283Z,90.90
2023-04-06T20:46:56.482Z,90.90
2023-04-06T20:49:24.319Z,90.90
2023-04-06T20:51:53.548Z,90.90
2023-04-06T20:54:21.705Z,90.90
2023-04-06T20:56:50.212Z,90.90
2023-04-06T20:59:18.120Z,90.90
2023-04-06T21:01:46.016Z,90.90
2023-04-06T21:04:14.102Z,90.80
2023-04-06T21:06:42.033Z,90.90
2023-04-06T21:09:11.876Z,90.80
2023-04-06T21:11:39.665Z,90.90
2023-04-06T21:14:07.839Z,90.80
2023-04-06T21:16:35.679Z,90.80
2023-04-06T21:19:03.536Z,90.90
2023-04-06T21:21:31.683Z,90.80
2023-04-06T21:24:00.252Z,90.70
2023-04-06T21:26:31.082Z,90.80
2023-04-06T21:28:58.929Z,90.90
2023-04-06T21:31:26.873Z,90.80
2023-04-06T21:33:54.795Z,90.80
2023-04-06T21:36:22.704Z,90.80
2023-04-06T21:38:50.807Z,90.80
2023-04-06T21:41:18.584Z,90.70
2023-04-06T21:43:47.775Z,90.80
2023-04-06T21:46:15.647Z,90.90
2023-04-06T21:48:43.749Z,90.80
2023-04-06T21:51:17.820Z,90.80
2023-04-06T21:53:45.748Z,91.10
2023-04-06T21:56:14.029Z,90.90
2023-04-06T21:58:41.985Z,91.00
2023-04-06T22:01:12.900Z,91.00
2023-04-06T22:03:40.967Z,91.20
2023-04-06T22:06:09.584Z,91.10
2023-04-06T22:08:37.549Z,91.20
2023-04-06T22:11:09.020Z,91.20
2023-04-06T22:13:37.225Z,91.40
2023-04-06T22:16:05.834Z,91.20
2023-04-06T22:18:38.071Z,91.40
2023-04-06T22:21:07.339Z,91.50
2023-04-06T22:23:36.065Z,91.50
2023-04-06T22:26:03.985Z,91.50
2023-04-06T22:28:31.920Z,91.60
2023-04-06T22:30:59.763Z,91.60
2023-04-06T22:33:27.532Z,91.60
2023-04-06T22:35:56.681Z,91.60
2023-04-06T22:38:24.562Z,91.80
2023-04-06T22:40:52.437Z,91.70
2023-04-06T22:43:20.304Z,91.60
2023-04-06T22:45:48.506Z,91.80
2023-04-06T22:48:16.479Z,91.70
2023-04-06T22:50:44.382Z,91.80
2023-04-06T22:53:14.044Z,91.80
2023-04-06T22:55:41.957Z,91.80
2023-04-06T22:58:09.887Z,91.80
2023-04-06T23:00:37.713Z,91.80
2023-04-06T23:03:06.316Z,91.80
2023-04-06T23:05:34.358Z,91.80
2023-04-06T23:08:02.419Z,91.70
2023-04-06T23:10:31.762Z,91.70
2023-04-06T23:12:59.572Z,91.70
2023-04-06T23:15:27.401Z,91.70
2023-04-06T23:17:55.208Z,91.70
2023-04-06T23:20:23.280Z,91.70
2023-04-06T23:22:51.361Z,91.70
2023-04-06T23:25:19.370Z,91.60
2023-04-06T23:27:49.878Z,91.60
2023-04-06T23:30:17.796Z,91.70
2023-04-06T23:32:46.006Z,91.60
2023-04-06T23:35:13.970Z,91.60
2023-04-06T23:37:41.885Z,91.60
2023-04-06T23:40:10.779Z,91.60
2023-04-06T23:42:38.582Z,91.70
2023-04-06T23:45:09.549Z,91.60
2023-04-06T23:47:37.507Z,91.80
2023-04-06T23:50:06.238Z,91.70
2023-04-06T23:52:34.160Z,91.70
2023-04-06T23:55:02.299Z,91.70
2023-04-06T23:57:30.298Z,91.60
2023-04-06T23:59:59.960Z,91.70
